sensor_id;sensor_type;location;lat;lon;timestamp;P1;durP1;ratioP1;P2;durP2;ratioP2
59189;SDS011;50749;51.636;4.948;2023-05-07T00:00:37;2.05;;;1.15;;
59189;SDS011;50749;51.636;4.948;2023-05-07T00:03:19;2.22;;;1.30;;
59189;SDS011;50749;51.636;4.948;2023-05-07T00:05:45;3.47;;;1.48;;
59189;SDS011;50749;51.636;4.948;2023-05-07T00:08:11;4.30;;;1.30;;
59189;SDS011;50749;51.636;4.948;2023-05-07T00:10:37;2.42;;;1.30;;
59189;SDS011;50749;51.636;4.948;2023-05-07T00:13:03;3.53;;;1.65;;
59189;SDS011;50749;51.636;4.948;2023-05-07T00:15:29;3.22;;;1.65;;
59189;SDS011;50749;51.636;4.948;2023-05-07T00:17:55;1.77;;;1.00;;
59189;SDS011;50749;51.636;4.948;2023-05-07T00:20:21;2.53;;;1.30;;
59189;SDS011;50749;51.636;4.948;2023-05-07T00:22:47;2.67;;;1.40;;
59189;SDS011;50749;51.636;4.948;2023-05-07T00:25:13;2.80;;;1.30;;
59189;SDS011;50749;51.636;4.948;2023-05-07T00:27:38;2.63;;;1.55;;
59189;SDS011;50749;51.636;4.948;2023-05-07T00:30:05;3.17;;;1.27;;
59189;SDS011;50749;51.636;4.948;2023-05-07T00:32:31;4.22;;;1.30;;
59189;SDS011;50749;51.636;4.948;2023-05-07T00:34:57;2.30;;;1.60;;
59189;SDS011;50749;51.636;4.948;2023-05-07T00:37:23;3.20;;;1.50;;
59189;SDS011;50749;51.636;4.948;2023-05-07T00:39:49;3.60;;;1.27;;
59189;SDS011;50749;51.636;4.948;2023-05-07T00:42:14;3.28;;;1.27;;
59189;SDS011;50749;51.636;4.948;2023-05-07T00:44:41;4.93;;;1.40;;
59189;SDS011;50749;51.636;4.948;2023-05-07T00:47:07;3.58;;;1.92;;
59189;SDS011;50749;51.636;4.948;2023-05-07T00:49:41;2.83;;;1.23;;
59189;SDS011;50749;51.636;4.948;2023-05-07T00:52:09;2.75;;;2.03;;
59189;SDS011;50749;51.636;4.948;2023-05-07T00:54:38;2.83;;;1.58;;
59189;SDS011;50749;51.636;4.948;2023-05-07T00:57:05;5.55;;;1.80;;
59189;SDS011;50749;51.636;4.948;2023-05-07T00:59:32;3.92;;;1.42;;
59189;SDS011;50749;51.636;4.948;2023-05-07T01:01:58;2.42;;;1.27;;
59189;SDS011;50749;51.636;4.948;2023-05-07T01:04:25;4.22;;;1.52;;
59189;SDS011;50749;51.636;4.948;2023-05-07T01:06:51;4.10;;;1.73;;
59189;SDS011;50749;51.636;4.948;2023-05-07T01:09:21;2.40;;;1.48;;
59189;SDS011;50749;51.636;4.948;2023-05-07T01:11:49;2.20;;;1.35;;
59189;SDS011;50749;51.636;4.948;2023-05-07T01:14:17;2.05;;;1.55;;
59189;SDS011;50749;51.636;4.948;2023-05-07T01:16:44;2.10;;;1.40;;
59189;SDS011;50749;51.636;4.948;2023-05-07T01:19:10;2.80;;;1.45;;
59189;SDS011;50749;51.636;4.948;2023-05-07T01:21:39;2.30;;;1.40;;
59189;SDS011;50749;51.636;4.948;2023-05-07T01:24:11;1.70;;;1.33;;
59189;SDS011;50749;51.636;4.948;2023-05-07T01:26:37;3.03;;;1.42;;
59189;SDS011;50749;51.636;4.948;2023-05-07T01:29:03;2.47;;;1.30;;
59189;SDS011;50749;51.636;4.948;2023-05-07T01:31:29;2.92;;;1.40;;
59189;SDS011;50749;51.636;4.948;2023-05-07T01:33:55;2.22;;;1.40;;
59189;SDS011;50749;51.636;4.948;2023-05-07T01:36:22;2.20;;;1.35;;
59189;SDS011;50749;51.636;4.948;2023-05-07T01:38:51;2.00;;;1.38;;
59189;SDS011;50749;51.636;4.948;2023-05-07T01:41:18;4.18;;;1.58;;
59189;SDS011;50749;51.636;4.948;2023-05-07T01:43:45;3.97;;;1.55;;
59189;SDS011;50749;51.636;4.948;2023-05-07T01:46:12;2.75;;;1.52;;
59189;SDS011;50749;51.636;4.948;2023-05-07T01:48:38;2.30;;;1.40;;
59189;SDS011;50749;51.636;4.948;2023-05-07T01:51:04;3.70;;;1.92;;
59189;SDS011;50749;51.636;4.948;2023-05-07T01:53:37;3.05;;;1.60;;
59189;SDS011;50749;51.636;4.948;2023-05-07T01:56:04;2.17;;;1.33;;
59189;SDS011;50749;51.636;4.948;2023-05-07T01:58:31;3.53;;;2.17;;
59189;SDS011;50749;51.636;4.948;2023-05-07T02:00:56;2.10;;;1.30;;
59189;SDS011;50749;51.636;4.948;2023-05-07T02:03:22;2.88;;;1.73;;
59189;SDS011;50749;51.636;4.948;2023-05-07T02:05:48;2.90;;;1.52;;
59189;SDS011;50749;51.636;4.948;2023-05-07T02:08:14;2.80;;;1.25;;
59189;SDS011;50749;51.636;4.948;2023-05-07T02:10:40;3.33;;;1.42;;
59189;SDS011;50749;51.636;4.948;2023-05-07T02:13:06;2.65;;;1.67;;
59189;SDS011;50749;51.636;4.948;2023-05-07T02:15:31;4.07;;;1.70;;
59189;SDS011;50749;51.636;4.948;2023-05-07T02:18:07;1.75;;;1.30;;
59189;SDS011;50749;51.636;4.948;2023-05-07T02:20:34;2.85;;;1.67;;
59189;SDS011;50749;51.636;4.948;2023-05-07T02:23:01;2.53;;;1.30;;
59189;SDS011;50749;51.636;4.948;2023-05-07T02:25:26;2.42;;;1.40;;
59189;SDS011;50749;51.636;4.948;2023-05-07T02:27:52;4.05;;;1.27;;
59189;SDS011;50749;51.636;4.948;2023-05-07T02:30:18;2.97;;;1.63;;
59189;SDS011;50749;51.636;4.948;2023-05-07T02:32:46;2.15;;;1.38;;
59189;SDS011;50749;51.636;4.948;2023-05-07T02:35:12;2.92;;;1.38;;
59189;SDS011;50749;51.636;4.948;2023-05-07T02:37:38;4.30;;;1.70;;
59189;SDS011;50749;51.636;4.948;2023-05-07T02:40:04;2.55;;;1.50;;
59189;SDS011;50749;51.636;4.948;2023-05-07T02:42:30;1.45;;;1.17;;
59189;SDS011;50749;51.636;4.948;2023-05-07T02:44:56;2.10;;;1.40;;
59189;SDS011;50749;51.636;4.948;2023-05-07T02:47:22;3.63;;;1.42;;
59189;SDS011;50749;51.636;4.948;2023-05-07T02:49:48;1.77;;;1.40;;
59189;SDS011;50749;51.636;4.948;2023-05-07T02:52:13;2.40;;;1.50;;
59189;SDS011;50749;51.636;4.948;2023-05-07T02:54:39;2.65;;;1.60;;
59189;SDS011;50749;51.636;4.948;2023-05-07T02:57:05;2.90;;;1.67;;
59189;SDS011;50749;51.636;4.948;2023-05-07T02:59:31;2.53;;;1.38;;
59189;SDS011;50749;51.636;4.948;2023-05-07T03:01:57;2.05;;;1.40;;
59189;SDS011;50749;51.636;4.948;2023-05-07T03:04:23;3.00;;;1.60;;
59189;SDS011;50749;51.636;4.948;2023-05-07T03:06:49;2.25;;;1.60;;
59189;SDS011;50749;51.636;4.948;2023-05-07T03:09:14;3.00;;;1.77;;
59189;SDS011;50749;51.636;4.948;2023-05-07T03:11:40;2.72;;;1.52;;
59189;SDS011;50749;51.636;4.948;2023-05-07T03:14:06;2.40;;;1.55;;
59189;SDS011;50749;51.636;4.948;2023-05-07T03:16:32;3.33;;;1.60;;
59189;SDS011;50749;51.636;4.948;2023-05-07T03:18:58;3.72;;;1.80;;
59189;SDS011;50749;51.636;4.948;2023-05-07T03:21:24;3.55;;;1.77;;
59189;SDS011;50749;51.636;4.948;2023-05-07T03:23:51;3.03;;;1.60;;
59189;SDS011;50749;51.636;4.948;2023-05-07T03:26:17;2.97;;;1.30;;
59189;SDS011;50749;51.636;4.948;2023-05-07T03:28:43;2.65;;;1.50;;
59189;SDS011;50749;51.636;4.948;2023-05-07T03:31:09;3.10;;;1.48;;
59189;SDS011;50749;51.636;4.948;2023-05-07T03:33:35;2.65;;;1.70;;
59189;SDS011;50749;51.636;4.948;2023-05-07T03:36:01;3.08;;;1.55;;
59189;SDS011;50749;51.636;4.948;2023-05-07T03:38:26;2.80;;;1.83;;
59189;SDS011;50749;51.636;4.948;2023-05-07T03:40:52;2.28;;;1.50;;
59189;SDS011;50749;51.636;4.948;2023-05-07T03:43:18;3.13;;;1.55;;
59189;SDS011;50749;51.636;4.948;2023-05-07T03:45:44;2.58;;;1.63;;
59189;SDS011;50749;51.636;4.948;2023-05-07T03:48:10;2.75;;;1.50;;
59189;SDS011;50749;51.636;4.948;2023-05-07T03:50:37;3.97;;;1.60;;
59189;SDS011;50749;51.636;4.948;2023-05-07T03:53:03;3.45;;;1.85;;
59189;SDS011;50749;51.636;4.948;2023-05-07T03:55:29;3.80;;;1.55;;
59189;SDS011;50749;51.636;4.948;2023-05-07T03:57:54;5.57;;;1.90;;
59189;SDS011;50749;51.636;4.948;2023-05-07T04:00:22;2.85;;;1.90;;
59189;SDS011;50749;51.636;4.948;2023-05-07T04:02:47;3.67;;;1.80;;
59189;SDS011;50749;51.636;4.948;2023-05-07T04:05:13;3.85;;;1.75;;
59189;SDS011;50749;51.636;4.948;2023-05-07T04:07:40;2.67;;;1.67;;
59189;SDS011;50749;51.636;4.948;2023-05-07T04:10:06;2.90;;;1.80;;
59189;SDS011;50749;51.636;4.948;2023-05-07T04:12:31;2.85;;;1.83;;
59189;SDS011;50749;51.636;4.948;2023-05-07T04:14:57;4.75;;;1.85;;
59189;SDS011;50749;51.636;4.948;2023-05-07T04:17:23;4.82;;;1.92;;
59189;SDS011;50749;51.636;4.948;2023-05-07T04:19:49;2.83;;;1.80;;
59189;SDS011;50749;51.636;4.948;2023-05-07T04:22:15;2.08;;;1.50;;
59189;SDS011;50749;51.636;4.948;2023-05-07T04:24:41;3.78;;;1.88;;
59189;SDS011;50749;51.636;4.948;2023-05-07T04:27:06;3.70;;;1.63;;
59189;SDS011;50749;51.636;4.948;2023-05-07T04:29:33;2.58;;;2.08;;
59189;SDS011;50749;51.636;4.948;2023-05-07T04:31:58;3.35;;;1.65;;
59189;SDS011;50749;51.636;4.948;2023-05-07T04:34:24;2.58;;;1.50;;
59189;SDS011;50749;51.636;4.948;2023-05-07T04:36:50;3.30;;;1.80;;
59189;SDS011;50749;51.636;4.948;2023-05-07T04:39:16;3.42;;;1.70;;
59189;SDS011;50749;51.636;4.948;2023-05-07T04:41:41;2.80;;;1.90;;
59189;SDS011;50749;51.636;4.948;2023-05-07T04:44:07;3.10;;;1.70;;
59189;SDS011;50749;51.636;4.948;2023-05-07T04:46:34;3.45;;;1.90;;
59189;SDS011;50749;51.636;4.948;2023-05-07T04:49:00;2.25;;;1.77;;
59189;SDS011;50749;51.636;4.948;2023-05-07T04:51:26;2.60;;;1.45;;
59189;SDS011;50749;51.636;4.948;2023-05-07T04:53:52;3.67;;;2.13;;
59189;SDS011;50749;51.636;4.948;2023-05-07T04:56:17;2.10;;;1.38;;
59189;SDS011;50749;51.636;4.948;2023-05-07T04:58:43;2.80;;;2.00;;
59189;SDS011;50749;51.636;4.948;2023-05-07T05:01:09;2.40;;;1.90;;
59189;SDS011;50749;51.636;4.948;2023-05-07T05:03:35;4.25;;;1.77;;
59189;SDS011;50749;51.636;4.948;2023-05-07T05:06:01;3.13;;;2.10;;
59189;SDS011;50749;51.636;4.948;2023-05-07T05:08:27;3.15;;;1.60;;
59189;SDS011;50749;51.636;4.948;2023-05-07T05:10:52;3.50;;;1.90;;
59189;SDS011;50749;51.636;4.948;2023-05-07T05:13:18;4.55;;;2.30;;
59189;SDS011;50749;51.636;4.948;2023-05-07T05:15:44;3.70;;;1.95;;
59189;SDS011;50749;51.636;4.948;2023-05-07T05:18:11;4.10;;;2.00;;
59189;SDS011;50749;51.636;4.948;2023-05-07T05:20:36;2.38;;;1.75;;
59189;SDS011;50749;51.636;4.948;2023-05-07T05:23:02;2.47;;;1.75;;
59189;SDS011;50749;51.636;4.948;2023-05-07T05:25:28;2.88;;;1.90;;
59189;SDS011;50749;51.636;4.948;2023-05-07T05:27:54;3.30;;;2.20;;
59189;SDS011;50749;51.636;4.948;2023-05-07T05:30:20;3.17;;;1.95;;
59189;SDS011;50749;51.636;4.948;2023-05-07T05:32:46;3.20;;;1.88;;
59189;SDS011;50749;51.636;4.948;2023-05-07T05:35:12;2.95;;;2.05;;
59189;SDS011;50749;51.636;4.948;2023-05-07T05:37:38;3.35;;;2.10;;
59189;SDS011;50749;51.636;4.948;2023-05-07T05:40:04;3.65;;;2.05;;
59189;SDS011;50749;51.636;4.948;2023-05-07T05:42:30;2.70;;;1.98;;
59189;SDS011;50749;51.636;4.948;2023-05-07T05:44:56;3.47;;;2.45;;
59189;SDS011;50749;51.636;4.948;2023-05-07T05:47:22;4.53;;;1.90;;
59189;SDS011;50749;51.636;4.948;2023-05-07T05:49:48;3.38;;;2.13;;
59189;SDS011;50749;51.636;4.948;2023-05-07T05:52:14;5.15;;;2.33;;
59189;SDS011;50749;51.636;4.948;2023-05-07T05:54:40;3.33;;;2.00;;
59189;SDS011;50749;51.636;4.948;2023-05-07T05:57:06;3.28;;;2.00;;
59189;SDS011;50749;51.636;4.948;2023-05-07T05:59:31;3.05;;;1.98;;
59189;SDS011;50749;51.636;4.948;2023-05-07T06:01:57;2.35;;;1.88;;
59189;SDS011;50749;51.636;4.948;2023-05-07T06:04:23;3.25;;;1.92;;
59189;SDS011;50749;51.636;4.948;2023-05-07T06:06:49;3.20;;;2.25;;
59189;SDS011;50749;51.636;4.948;2023-05-07T06:09:15;2.50;;;2.10;;
59189;SDS011;50749;51.636;4.948;2023-05-07T06:11:41;4.85;;;2.83;;
59189;SDS011;50749;51.636;4.948;2023-05-07T06:14:07;3.95;;;2.38;;
59189;SDS011;50749;51.636;4.948;2023-05-07T06:16:33;3.88;;;2.90;;
59189;SDS011;50749;51.636;4.948;2023-05-07T06:18:58;4.25;;;2.80;;
59189;SDS011;50749;51.636;4.948;2023-05-07T06:21:24;6.97;;;4.57;;
59189;SDS011;50749;51.636;4.948;2023-05-07T06:23:50;3.97;;;2.50;;
59189;SDS011;50749;51.636;4.948;2023-05-07T06:26:17;4.50;;;2.50;;
59189;SDS011;50749;51.636;4.948;2023-05-07T06:28:45;4.05;;;2.60;;
59189;SDS011;50749;51.636;4.948;2023-05-07T06:31:12;3.33;;;2.60;;
59189;SDS011;50749;51.636;4.948;2023-05-07T06:33:39;3.95;;;2.78;;
59189;SDS011;50749;51.636;4.948;2023-05-07T06:36:05;3.33;;;2.22;;
59189;SDS011;50749;51.636;4.948;2023-05-07T06:38:31;3.10;;;2.10;;
59189;SDS011;50749;51.636;4.948;2023-05-07T06:40:57;5.38;;;2.30;;
59189;SDS011;50749;51.636;4.948;2023-05-07T06:43:23;3.03;;;2.00;;
59189;SDS011;50749;51.636;4.948;2023-05-07T06:45:49;4.55;;;2.00;;
59189;SDS011;50749;51.636;4.948;2023-05-07T06:48:14;3.95;;;2.20;;
59189;SDS011;50749;51.636;4.948;2023-05-07T06:50:41;3.90;;;2.17;;
59189;SDS011;50749;51.636;4.948;2023-05-07T06:53:07;3.53;;;1.90;;
59189;SDS011;50749;51.636;4.948;2023-05-07T06:55:33;5.47;;;2.38;;
59189;SDS011;50749;51.636;4.948;2023-05-07T06:57:59;4.75;;;1.98;;
59189;SDS011;50749;51.636;4.948;2023-05-07T07:00:26;3.53;;;2.35;;
59189;SDS011;50749;51.636;4.948;2023-05-07T07:02:53;5.50;;;2.13;;
59189;SDS011;50749;51.636;4.948;2023-05-07T07:05:20;5.43;;;2.10;;
59189;SDS011;50749;51.636;4.948;2023-05-07T07:07:46;3.25;;;2.00;;
59189;SDS011;50749;51.636;4.948;2023-05-07T07:10:21;3.90;;;2.03;;
59189;SDS011;50749;51.636;4.948;2023-05-07T07:12:48;3.50;;;2.22;;
59189;SDS011;50749;51.636;4.948;2023-05-07T07:15:14;3.47;;;1.88;;
59189;SDS011;50749;51.636;4.948;2023-05-07T07:17:41;2.97;;;1.90;;
59189;SDS011;50749;51.636;4.948;2023-05-07T07:20:07;4.80;;;2.40;;
59189;SDS011;50749;51.636;4.948;2023-05-07T07:22:33;3.47;;;2.03;;
59189;SDS011;50749;51.636;4.948;2023-05-07T07:24:59;3.75;;;2.00;;
59189;SDS011;50749;51.636;4.948;2023-05-07T07:27:25;4.78;;;2.17;;
59189;SDS011;50749;51.636;4.948;2023-05-07T07:29:51;2.20;;;1.77;;
59189;SDS011;50749;51.636;4.948;2023-05-07T07:32:18;6.28;;;1.50;;
59189;SDS011;50749;51.636;4.948;2023-05-07T07:34:44;2.33;;;1.48;;
59189;SDS011;50749;51.636;4.948;2023-05-07T07:37:10;2.60;;;1.70;;
59189;SDS011;50749;51.636;4.948;2023-05-07T07:39:36;5.30;;;2.53;;
59189;SDS011;50749;51.636;4.948;2023-05-07T07:42:04;3.40;;;2.13;;
59189;SDS011;50749;51.636;4.948;2023-05-07T07:44:31;5.32;;;2.20;;
59189;SDS011;50749;51.636;4.948;2023-05-07T07:46:56;7.50;;;2.70;;
59189;SDS011;50749;51.636;4.948;2023-05-07T07:49:22;5.13;;;2.60;;
59189;SDS011;50749;51.636;4.948;2023-05-07T07:51:49;2.67;;;1.70;;
59189;SDS011;50749;51.636;4.948;2023-05-07T07:54:16;3.55;;;1.80;;
59189;SDS011;50749;51.636;4.948;2023-05-07T07:56:42;3.13;;;1.70;;
59189;SDS011;50749;51.636;4.948;2023-05-07T07:59:08;5.97;;;2.22;;
59189;SDS011;50749;51.636;4.948;2023-05-07T08:01:34;4.13;;;1.80;;
59189;SDS011;50749;51.636;4.948;2023-05-07T08:04:00;2.80;;;1.85;;
59189;SDS011;50749;51.636;4.948;2023-05-07T08:06:28;4.57;;;2.20;;
59189;SDS011;50749;51.636;4.948;2023-05-07T08:08:55;3.13;;;2.00;;
59189;SDS011;50749;51.636;4.948;2023-05-07T08:11:20;3.78;;;2.45;;
59189;SDS011;50749;51.636;4.948;2023-05-07T08:13:48;3.67;;;1.85;;
59189;SDS011;50749;51.636;4.948;2023-05-07T08:16:14;5.35;;;2.08;;
59189;SDS011;50749;51.636;4.948;2023-05-07T08:18:40;3.25;;;2.22;;
59189;SDS011;50749;51.636;4.948;2023-05-07T08:21:05;3.85;;;2.30;;
59189;SDS011;50749;51.636;4.948;2023-05-07T08:23:33;3.35;;;2.13;;
59189;SDS011;50749;51.636;4.948;2023-05-07T08:26:00;4.30;;;1.90;;
59189;SDS011;50749;51.636;4.948;2023-05-07T08:28:26;3.70;;;2.05;;
59189;SDS011;50749;51.636;4.948;2023-05-07T08:30:51;2.42;;;1.85;;
59189;SDS011;50749;51.636;4.948;2023-05-07T08:33:17;5.15;;;1.85;;
59189;SDS011;50749;51.636;4.948;2023-05-07T08:35:43;4.55;;;2.03;;
59189;SDS011;50749;51.636;4.948;2023-05-07T08:38:09;3.28;;;2.03;;
59189;SDS011;50749;51.636;4.948;2023-05-07T08:40:36;5.10;;;2.15;;
59189;SDS011;50749;51.636;4.948;2023-05-07T08:43:07;2.90;;;2.03;;
59189;SDS011;50749;51.636;4.948;2023-05-07T08:45:33;4.38;;;2.40;;
59189;SDS011;50749;51.636;4.948;2023-05-07T08:48:02;2.55;;;1.92;;
59189;SDS011;50749;51.636;4.948;2023-05-07T08:50:30;3.00;;;2.30;;
59189;SDS011;50749;51.636;4.948;2023-05-07T08:52:56;4.15;;;2.20;;
59189;SDS011;50749;51.636;4.948;2023-05-07T08:55:22;2.05;;;1.83;;
59189;SDS011;50749;51.636;4.948;2023-05-07T08:57:50;6.72;;;2.17;;
59189;SDS011;50749;51.636;4.948;2023-05-07T09:00:15;4.97;;;2.28;;
59189;SDS011;50749;51.636;4.948;2023-05-07T09:02:42;5.00;;;2.20;;
59189;SDS011;50749;51.636;4.948;2023-05-07T09:05:07;3.78;;;1.77;;
59189;SDS011;50749;51.636;4.948;2023-05-07T09:07:34;5.43;;;1.95;;
59189;SDS011;50749;51.636;4.948;2023-05-07T09:10:03;3.10;;;2.10;;
59189;SDS011;50749;51.636;4.948;2023-05-07T09:12:30;9.32;;;2.53;;
59189;SDS011;50749;51.636;4.948;2023-05-07T09:14:56;4.15;;;2.17;;
59189;SDS011;50749;51.636;4.948;2023-05-07T09:17:23;4.55;;;2.10;;
59189;SDS011;50749;51.636;4.948;2023-05-07T09:19:48;2.80;;;1.98;;
59189;SDS011;50749;51.636;4.948;2023-05-07T09:22:14;4.20;;;2.50;;
59189;SDS011;50749;51.636;4.948;2023-05-07T09:24:40;4.05;;;2.15;;
59189;SDS011;50749;51.636;4.948;2023-05-07T09:27:07;3.47;;;2.05;;
59189;SDS011;50749;51.636;4.948;2023-05-07T09:29:33;2.97;;;1.85;;
59189;SDS011;50749;51.636;4.948;2023-05-07T09:32:06;3.03;;;2.10;;
59189;SDS011;50749;51.636;4.948;2023-05-07T09:34:32;4.90;;;2.00;;
59189;SDS011;50749;51.636;4.948;2023-05-07T09:37:00;2.42;;;1.80;;
59189;SDS011;50749;51.636;4.948;2023-05-07T09:39:39;4.32;;;1.98;;
59189;SDS011;50749;51.636;4.948;2023-05-07T09:42:06;2.63;;;1.95;;
59189;SDS011;50749;51.636;4.948;2023-05-07T09:44:32;2.67;;;1.90;;
59189;SDS011;50749;51.636;4.948;2023-05-07T09:47:00;2.95;;;1.85;;
59189;SDS011;50749;51.636;4.948;2023-05-07T09:49:27;3.42;;;2.08;;
59189;SDS011;50749;51.636;4.948;2023-05-07T09:51:59;4.90;;;1.88;;
59189;SDS011;50749;51.636;4.948;2023-05-07T09:54:26;3.30;;;2.15;;
59189;SDS011;50749;51.636;4.948;2023-05-07T09:56:56;4.53;;;2.10;;
59189;SDS011;50749;51.636;4.948;2023-05-07T09:59:23;3.10;;;1.60;;
59189;SDS011;50749;51.636;4.948;2023-05-07T10:01:51;3.00;;;1.95;;
59189;SDS011;50749;51.636;4.948;2023-05-07T10:04:21;2.80;;;1.77;;
59189;SDS011;50749;51.636;4.948;2023-05-07T10:06:47;3.55;;;1.80;;
59189;SDS011;50749;51.636;4.948;2023-05-07T10:09:14;2.67;;;1.80;;
59189;SDS011;50749;51.636;4.948;2023-05-07T10:11:40;2.72;;;1.70;;
59189;SDS011;50749;51.636;4.948;2023-05-07T10:14:07;3.90;;;1.98;;
59189;SDS011;50749;51.636;4.948;2023-05-07T10:16:35;2.42;;;1.27;;
59189;SDS011;50749;51.636;4.948;2023-05-07T10:19:05;2.97;;;1.80;;
59189;SDS011;50749;51.636;4.948;2023-05-07T10:21:39;2.42;;;1.60;;
59189;SDS011;50749;51.636;4.948;2023-05-07T10:24:10;2.28;;;1.42;;
59189;SDS011;50749;51.636;4.948;2023-05-07T10:26:46;2.75;;;1.77;;
59189;SDS011;50749;51.636;4.948;2023-05-07T10:29:24;3.38;;;1.75;;
59189;SDS011;50749;51.636;4.948;2023-05-07T10:34:56;3.85;;;1.70;;
59189;SDS011;50749;51.636;4.948;2023-05-07T10:37:25;3.08;;;1.70;;
59189;SDS011;50749;51.636;4.948;2023-05-07T10:39:52;2.60;;;1.63;;
59189;SDS011;50749;51.636;4.948;2023-05-07T10:42:18;2.60;;;1.48;;
59189;SDS011;50749;51.636;4.948;2023-05-07T10:44:43;3.88;;;1.58;;
59189;SDS011;50749;51.636;4.948;2023-05-07T10:47:11;4.13;;;1.60;;
59189;SDS011;50749;51.636;4.948;2023-05-07T10:50:19;2.38;;;1.58;;
59189;SDS011;50749;51.636;4.948;2023-05-07T10:52:30;3.72;;;1.75;;
59189;SDS011;50749;51.636;4.948;2023-05-07T10:57:40;5.20;;;1.60;;
59189;SDS011;50749;51.636;4.948;2023-05-07T11:05:25;2.00;;;1.50;;
59189;SDS011;50749;51.636;4.948;2023-05-07T11:07:59;2.30;;;1.38;;
59189;SDS011;50749;51.636;4.948;2023-05-07T11:16:19;3.05;;;1.60;;
59189;SDS011;50749;51.636;4.948;2023-05-07T11:18:49;2.33;;;1.50;;
59189;SDS011;50749;51.636;4.948;2023-05-07T11:24:02;2.33;;;1.50;;
59189;SDS011;50749;51.636;4.948;2023-05-07T11:26:30;4.38;;;1.65;;
59189;SDS011;50749;51.636;4.948;2023-05-07T11:29:14;7.18;;;1.58;;
59189;SDS011;50749;51.636;4.948;2023-05-07T11:31:53;2.75;;;1.60;;
59189;SDS011;50749;51.636;4.948;2023-05-07T11:34:21;4.22;;;1.77;;
59189;SDS011;50749;51.636;4.948;2023-05-07T11:36:47;5.22;;;1.48;;
59189;SDS011;50749;51.636;4.948;2023-05-07T11:39:30;4.15;;;1.63;;
59189;SDS011;50749;51.636;4.948;2023-05-07T11:41:58;5.07;;;2.22;;
59189;SDS011;50749;51.636;4.948;2023-05-07T11:44:39;3.60;;;1.70;;
59189;SDS011;50749;51.636;4.948;2023-05-07T11:47:09;3.42;;;1.85;;
59189;SDS011;50749;51.636;4.948;2023-05-07T11:49:36;3.33;;;1.30;;
59189;SDS011;50749;51.636;4.948;2023-05-07T11:52:01;3.97;;;1.42;;
59189;SDS011;50749;51.636;4.948;2023-05-07T11:54:34;2.45;;;1.85;;
59189;SDS011;50749;51.636;4.948;2023-05-07T11:57:01;7.90;;;2.13;;
59189;SDS011;50749;51.636;4.948;2023-05-07T11:59:27;4.15;;;1.73;;
59189;SDS011;50749;51.636;4.948;2023-05-07T12:01:56;5.18;;;1.60;;
59189;SDS011;50749;51.636;4.948;2023-05-07T12:04:23;5.55;;;1.77;;
59189;SDS011;50749;51.636;4.948;2023-05-07T12:06:48;3.17;;;1.90;;
59189;SDS011;50749;51.636;4.948;2023-05-07T12:09:16;2.55;;;1.30;;
59189;SDS011;50749;51.636;4.948;2023-05-07T12:11:45;2.88;;;1.30;;
59189;SDS011;50749;51.636;4.948;2023-05-07T12:14:11;3.90;;;1.50;;
59189;SDS011;50749;51.636;4.948;2023-05-07T12:16:38;6.20;;;1.77;;
59189;SDS011;50749;51.636;4.948;2023-05-07T12:19:06;4.75;;;1.55;;
59189;SDS011;50749;51.636;4.948;2023-05-07T12:21:34;4.65;;;1.73;;
59189;SDS011;50749;51.636;4.948;2023-05-07T12:24:01;5.53;;;1.67;;
59189;SDS011;50749;51.636;4.948;2023-05-07T12:26:27;2.83;;;1.80;;
59189;SDS011;50749;51.636;4.948;2023-05-07T12:28:53;3.15;;;1.70;;
59189;SDS011;50749;51.636;4.948;2023-05-07T12:31:18;4.97;;;1.83;;
59189;SDS011;50749;51.636;4.948;2023-05-07T12:33:45;2.28;;;1.38;;
59189;SDS011;50749;51.636;4.948;2023-05-07T12:36:11;5.30;;;1.73;;
59189;SDS011;50749;51.636;4.948;2023-05-07T12:38:38;3.15;;;1.73;;
59189;SDS011;50749;51.636;4.948;2023-05-07T12:41:09;4.22;;;1.75;;
59189;SDS011;50749;51.636;4.948;2023-05-07T12:43:38;3.10;;;1.67;;
59189;SDS011;50749;51.636;4.948;2023-05-07T12:46:04;4.57;;;1.90;;
59189;SDS011;50749;51.636;4.948;2023-05-07T12:48:32;4.60;;;1.88;;
59189;SDS011;50749;51.636;4.948;2023-05-07T12:51:01;6.97;;;1.65;;
59189;SDS011;50749;51.636;4.948;2023-05-07T12:53:28;3.90;;;2.13;;
59189;SDS011;50749;51.636;4.948;2023-05-07T12:55:56;4.40;;;1.83;;
59189;SDS011;50749;51.636;4.948;2023-05-07T13:00:53;4.95;;;2.40;;
59189;SDS011;50749;51.636;4.948;2023-05-07T13:03:21;3.97;;;2.80;;
59189;SDS011;50749;51.636;4.948;2023-05-07T13:05:48;5.30;;;2.72;;
59189;SDS011;50749;51.636;4.948;2023-05-07T13:10:56;5.55;;;2.50;;
59189;SDS011;50749;51.636;4.948;2023-05-07T13:13:26;7.57;;;2.58;;
59189;SDS011;50749;51.636;4.948;2023-05-07T13:15:52;3.83;;;2.03;;
59189;SDS011;50749;51.636;4.948;2023-05-07T13:18:18;7.32;;;2.35;;
59189;SDS011;50749;51.636;4.948;2023-05-07T13:20:43;5.07;;;2.30;;
59189;SDS011;50749;51.636;4.948;2023-05-07T13:23:09;3.22;;;2.03;;
59189;SDS011;50749;51.636;4.948;2023-05-07T13:25:35;5.78;;;2.03;;
59189;SDS011;50749;51.636;4.948;2023-05-07T13:28:01;5.95;;;2.15;;
59189;SDS011;50749;51.636;4.948;2023-05-07T13:30:28;5.43;;;2.10;;
59189;SDS011;50749;51.636;4.948;2023-05-07T13:32:55;4.93;;;1.90;;
59189;SDS011;50749;51.636;4.948;2023-05-07T13:35:21;3.67;;;2.05;;
59189;SDS011;50749;51.636;4.948;2023-05-07T13:37:47;3.90;;;1.88;;
59189;SDS011;50749;51.636;4.948;2023-05-07T13:40:14;3.65;;;2.05;;
59189;SDS011;50749;51.636;4.948;2023-05-07T13:42:40;4.32;;;2.60;;
59189;SDS011;50749;51.636;4.948;2023-05-07T13:45:06;4.05;;;2.20;;
59189;SDS011;50749;51.636;4.948;2023-05-07T13:47:33;4.05;;;2.33;;
59189;SDS011;50749;51.636;4.948;2023-05-07T13:49:59;9.30;;;2.42;;
59189;SDS011;50749;51.636;4.948;2023-05-07T13:52:25;4.28;;;2.30;;
59189;SDS011;50749;51.636;4.948;2023-05-07T13:54:51;3.85;;;1.80;;
59189;SDS011;50749;51.636;4.948;2023-05-07T13:57:18;4.55;;;2.38;;
59189;SDS011;50749;51.636;4.948;2023-05-07T13:59:43;4.93;;;2.30;;
59189;SDS011;50749;51.636;4.948;2023-05-07T14:02:09;4.28;;;2.30;;
59189;SDS011;50749;51.636;4.948;2023-05-07T14:04:35;8.10;;;2.15;;
59189;SDS011;50749;51.636;4.948;2023-05-07T14:07:03;4.97;;;2.35;;
59189;SDS011;50749;51.636;4.948;2023-05-07T14:09:28;3.22;;;1.83;;
59189;SDS011;50749;51.636;4.948;2023-05-07T14:11:55;4.28;;;2.20;;
59189;SDS011;50749;51.636;4.948;2023-05-07T14:14:20;5.72;;;2.45;;
59189;SDS011;50749;51.636;4.948;2023-05-07T14:16:46;2.88;;;1.83;;
59189;SDS011;50749;51.636;4.948;2023-05-07T14:19:12;3.35;;;2.35;;
59189;SDS011;50749;51.636;4.948;2023-05-07T14:21:38;4.65;;;2.00;;
59189;SDS011;50749;51.636;4.948;2023-05-07T14:24:05;4.10;;;2.05;;
59189;SDS011;50749;51.636;4.948;2023-05-07T14:26:32;3.67;;;2.10;;
59189;SDS011;50749;51.636;4.948;2023-05-07T14:28:58;4.70;;;2.38;;
59189;SDS011;50749;51.636;4.948;2023-05-07T14:31:24;5.30;;;2.33;;
59189;SDS011;50749;51.636;4.948;2023-05-07T14:33:51;6.75;;;2.38;;
59189;SDS011;50749;51.636;4.948;2023-05-07T14:36:17;3.95;;;1.80;;
59189;SDS011;50749;51.636;4.948;2023-05-07T14:38:45;5.65;;;2.85;;
59189;SDS011;50749;51.636;4.948;2023-05-07T14:41:11;5.80;;;2.22;;
59189;SDS011;50749;51.636;4.948;2023-05-07T14:43:37;3.22;;;1.98;;
59189;SDS011;50749;51.636;4.948;2023-05-07T14:46:04;2.92;;;2.00;;
59189;SDS011;50749;51.636;4.948;2023-05-07T14:48:29;2.95;;;1.92;;
59189;SDS011;50749;51.636;4.948;2023-05-07T14:50:55;4.45;;;2.20;;
59189;SDS011;50749;51.636;4.948;2023-05-07T14:53:21;3.50;;;2.15;;
59189;SDS011;50749;51.636;4.948;2023-05-07T14:55:48;5.30;;;2.40;;
59189;SDS011;50749;51.636;4.948;2023-05-07T14:58:14;4.63;;;2.20;;
59189;SDS011;50749;51.636;4.948;2023-05-07T15:00:40;3.70;;;2.30;;
59189;SDS011;50749;51.636;4.948;2023-05-07T15:03:06;6.20;;;2.45;;
59189;SDS011;50749;51.636;4.948;2023-05-07T15:05:34;3.78;;;2.40;;
59189;SDS011;50749;51.636;4.948;2023-05-07T15:08:01;5.78;;;2.50;;
59189;SDS011;50749;51.636;4.948;2023-05-07T15:10:28;4.65;;;2.70;;